Observation data for Roaring Springs on 04/23/2019      Previous  Date  Next       Current Mesonet Observations  Soil Data  Daily Summary Page  Observations in Plain Language
KRRS 230500Z 01016G24KT 13/13 A3002 RMK A01 T01320126  RH  100%=      5-min Rain = 0.07
KRRS 230505Z 00011G18KT 13/13 A3003 RMK A01 T01320126  RH  100%=      5-min Rain = 0.03
KRRS 230510Z 00011G16KT 13/13 A3002 RMK A01 T01320126  RH  100%=      5-min Rain = 0
KRRS 230515Z 00012G18KT 13/13 A3003 RMK A01 T01320126  RH  100%=      5-min Rain = 0.01
KRRS 230520Z 00012KT 13/13 A3002 RMK A01 T01320126  RH  100%=      5-min Rain = 0
KRRS 230525Z 00012KT 13/13 A3003 RMK A01 T01320126  RH  100%=      5-min Rain = 0
KRRS 230530Z 35013KT 13/13 A3003 RMK A01 T01320126  RH  100%=      5-min Rain = 0
KRRS 230535Z 36012G20KT 13/13 A3003 RMK A01 T01320126  RH  100%=      5-min Rain = 0
KRRS 230540Z 01009G14KT 13/13 A3004 RMK A01 T01320126  RH  100%=      5-min Rain = 0
KRRS 230545Z 01009KT 13/13 A3005 RMK A01 T01320126  RH  100%=      5-min Rain = 0
KRRS 230550Z 01011KT 13/13 A3004 RMK A01 T01320126  RH  100%=      5-min Rain = 0.01
KRRS 230555Z 01010KT 13/13 A3004 RMK A01 T01320126  RH  100%=      5-min Rain = 0.01
KRRS 230600Z 01010KT 13/13 A3005 RMK A01 T01320126  RH  100%=      5-min Rain = 0.01
KRRS 230605Z 00012KT 13/13 A3003 RMK A01 T01320126  RH  100%=      5-min Rain = 0.03
KRRS 230610Z 35009G14KT 13/13 A3004 RMK A01 T01320126  RH  100%=      5-min Rain = 0.01
KRRS 230615Z 35007KT 13/13 A3006 RMK A01 T01320126  RH  100%=      5-min Rain = 0.01
KRRS 230620Z 33006KT 13/13 A3007 RMK A01 T01320126  RH  100%=      5-min Rain = 0.02
KRRS 230625Z 34009KT 13/13 A3006 RMK A01 T01320126  RH  100%=      5-min Rain = 0.05
KRRS 230630Z 35010KT 13/13 A3005 RMK A01 T01310125  RH  100%=      5-min Rain = 0.02
KRRS 230635Z 01014KT 13/13 A3003 RMK A01 T01310125  RH  100%=      5-min Rain = 0.04
KRRS 230640Z 01014KT 13/12 A3002 RMK A01 T01300124  RH  100%=      5-min Rain = 0.02
KRRS 230645Z 00013G19KT 13/12 A3001 RMK A01 T01300124  RH  100%=      5-min Rain = 0
KRRS 230650Z 35014G20KT 13/12 A3002 RMK A01 T01300124  RH  100%=      5-min Rain = 0.01
KRRS 230655Z 35012G17KT 13/12 A3002 RMK A01 T01300124  RH  100%=      5-min Rain = 0
KRRS 230700Z 00012G20KT 13/12 A3002 RMK A01 T01290124  RH  100%=      5-min Rain = 0
KRRS 230705Z 00012G17KT 13/12 A3002 RMK A01 T01290124  RH  100%=      5-min Rain = 0
KRRS 230710Z 00010G15KT 13/12 A3002 RMK A01 T01290124  RH  100%=      5-min Rain = 0
KRRS 230715Z 00011KT 13/12 A3002 RMK A01 T01290124  RH  100%=      5-min Rain = 0
KRRS 230720Z 01011KT 13/12 A3002 RMK A01 T01290124  RH  100%=      5-min Rain = 0
KRRS 230725Z 01010KT 13/12 A3002 RMK A01 T01300124  RH  100%=      5-min Rain = 0
KRRS 230730Z 00010G15KT 13/12 A3001 RMK A01 T01300124  RH  100%=      5-min Rain = 0
KRRS 230735Z 00010KT 13/12 A3001 RMK A01 T01300124  RH  100%=      5-min Rain = 0
KRRS 230740Z 00009KT 13/12 A3001 RMK A01 T01300124  RH  100%=      5-min Rain = 0
KRRS 230745Z 35009KT 13/12 A3001 RMK A01 T01300124  RH  100%=      5-min Rain = 0
KRRS 230750Z 35009KT 13/12 A3001 RMK A01 T01300124  RH  100%=      5-min Rain = 0
KRRS 230755Z 00012KT 13/12 A3001 RMK A01 T01300124  RH  100%=      5-min Rain = 0
KRRS 230800Z 00012KT 13/12 A3001 RMK A01 T01300124  RH  100%=      5-min Rain = 0
KRRS 230805Z 01010KT 13/13 A3001 RMK A01 T01300125  RH  100%=      5-min Rain = 0
KRRS 230810Z 01010KT 13/13 A3001 RMK A01 T01310125  RH  100%=      5-min Rain = 0
KRRS 230815Z 01009KT 13/13 A30 RMK A01 T01310125  RH  100%=      5-min Rain = 0
KRRS 230820Z 01009KT 13/13 A30 RMK A01 T01310125  RH  100%=      5-min Rain = 0
KRRS 230825Z 01008KT 13/13 A30 RMK A01 T01310125  RH  100%=      5-min Rain = 0
KRRS 230830Z 00009KT 13/13 A30 RMK A01 T01310125  RH  100%=      5-min Rain = 0
KRRS 230835Z 00009KT 13/13 A30 RMK A01 T01320126  RH  100%=      5-min Rain = 0
KRRS 230840Z 01009KT 13/13 A30 RMK A01 T01320126  RH  100%=      5-min Rain = 0
KRRS 230845Z 01010KT 13/13 A30 RMK A01 T01320126  RH  100%=      5-min Rain = 0
KRRS 230850Z 01009KT 13/13 A30 RMK A01 T01320127  RH  100%=      5-min Rain = 0
KRRS 230855Z 01010KT 13/13 A2999 RMK A01 T01330127  RH  100%=      5-min Rain = 0
KRRS 230900Z 02009KT 13/13 A2999 RMK A01 T01330127  RH  100%=      5-min Rain = 0.01
KRRS 230905Z 03009KT 13/13 A2999 RMK A01 T01330127  RH  100%=      5-min Rain = 0
KRRS 230910Z 03009KT 13/13 A2999 RMK A01 T01340128  RH  100%=      5-min Rain = 0
KRRS 230915Z 04007KT 13/13 A2999 RMK A01 T01340128  RH  100%=      5-min Rain = 0
KRRS 230920Z 05009KT 14/13 A2998 RMK A01 T01350129  RH  100%=      5-min Rain = 0
KRRS 230925Z 05009KT 14/13 A2999 RMK A01 T01360130  RH  100%=      5-min Rain = 0
KRRS 230930Z 04008KT 14/13 A2999 RMK A01 T01360130  RH  100%=      5-min Rain = 0
KRRS 230935Z 05008KT 14/13 A2999 RMK A01 T01360130  RH  100%=      5-min Rain = 0
KRRS 230940Z 04008KT 14/13 A30 RMK A01 T01370131  RH  100%=      5-min Rain = 0
KRRS 230945Z 03007KT 14/13 A30 RMK A01 T01360130  RH  100%=      5-min Rain = 0.01
KRRS 230950Z 03008KT 14/13 A30 RMK A01 T01360130  RH  100%=      5-min Rain = 0
KRRS 230955Z 03007G12KT 14/13 A30 RMK A01 T01360130  RH  100%=      5-min Rain = 0.01
KRRS 231000Z 04010KT 14/13 A2999 RMK A01 T01360130  RH  100%=      5-min Rain = 0
KRRS 231005Z 04010KT 14/13 A2999 RMK A01 T01360130  RH  100%=      5-min Rain = 0
KRRS 231010Z 04009KT 14/13 A30 RMK A01 T01360130  RH  100%=      5-min Rain = 0
KRRS 231015Z 04007KT 14/13 A30 RMK A01 T01360130  RH  100%=      5-min Rain = 0.01
KRRS 231020Z 04007KT 14/13 A30 RMK A01 T01360130  RH  100%=      5-min Rain = 0
KRRS 231025Z 03007KT 14/13 A30 RMK A01 T01360130  RH  100%=      5-min Rain = 0
KRRS 231030Z 03006KT 14/13 A30 RMK A01 T01360130  RH  100%=      5-min Rain = 0.02
KRRS 231035Z 03005KT 14/13 A3001 RMK A01 T01350129  RH  100%=      5-min Rain = 0.02
KRRS 231040Z 36005KT 14/13 A3003 RMK A01 T01350129  RH  100%=      5-min Rain = 0.06
KRRS 231045Z 30013G22KT 14/13 A3005 RMK A01 T01360130  RH  100%=      5-min Rain = 0.04
KRRS 231050Z 32016G23KT 13/13 A3003 RMK A01 T01330127  RH  100%=      5-min Rain = 0.09
KRRS 231055Z 36013G18KT 13/12 A30 RMK A01 T01300124  RH  100%=      5-min Rain = 0.04
KRRS 231100Z 36010G17KT 13/12 A2999 RMK A01 T01290124  RH  100%=      5-min Rain = 0
KRRS 231105Z 00010G17KT 13/12 A2998 RMK A01 T01300124  RH  100%=      5-min Rain = 0
KRRS 231110Z 35007KT 13/12 A2999 RMK A01 T01300124  RH  100%=      5-min Rain = 0
KRRS 231115Z 33006KT 13/12 A30 RMK A01 T01300124  RH  100%=      5-min Rain = 0
KRRS 231120Z 34006G13KT 13/13 A3002 RMK A01 T01300125  RH  100%=      5-min Rain = 0
KRRS 231125Z 03005KT 13/13 A3002 RMK A01 T01300125  RH  100%=      5-min Rain = 0
KRRS 231130Z 07007KT 13/13 A3003 RMK A01 T01300125  RH  100%=      5-min Rain = 0
KRRS 231135Z 06008KT 13/13 A3002 RMK A01 T01310125  RH  100%=      5-min Rain = 0
KRRS 231140Z 04007KT 13/13 A3002 RMK A01 T01310125  RH  100%=      5-min Rain = 0
KRRS 231145Z 03006KT 13/12 A3002 RMK A01 T01300124  RH  100%=      5-min Rain = 0
KRRS 231150Z 04006KT 13/12 A3002 RMK A01 T01300124  RH  100%=      5-min Rain = 0
KRRS 231155Z 04005KT 13/12 A3002 RMK A01 T01300124  RH  100%=      5-min Rain = 0
KRRS 231200Z 05005KT 13/12 A3001 RMK A01 T01300124  RH  100%=      5-min Rain = 0
KRRS 231205Z 04005KT 13/12 A3002 RMK A01 T01300124  RH  100%=      5-min Rain = 0
KRRS 231210Z 03005KT 13/13 A3002 RMK A01 T01300125  RH  100%=      5-min Rain = 0
KRRS 231215Z 00006KT 13/13 A3002 RMK A01 T01310126  RH  100%=      5-min Rain = 0
KRRS 231220Z 35006KT 13/13 A3003 RMK A01 T01320126  RH  100%=      5-min Rain = 0
KRRS 231225Z 35005KT 13/13 A3003 RMK A01 T01320127  RH  100%=      5-min Rain = 0
KRRS 231230Z 36004KT 13/13 A3003 RMK A01 T01330127  RH  100%=      5-min Rain = 0
KRRS 231235Z 00005KT 13/13 A3003 RMK A01 T01330127  RH  100%=      5-min Rain = 0
KRRS 231240Z 00005KT 13/13 A3003 RMK A01 T01330127  RH  100%=      5-min Rain = 0
KRRS 231245Z 01006KT 13/13 A3004 RMK A01 T01340128  RH  100%=      5-min Rain = 0
KRRS 231250Z 01007KT 13/13 A3004 RMK A01 T01340128  RH  100%=      5-min Rain = 0
KRRS 231255Z 01006KT 14/13 A3004 RMK A01 T01350129  RH  100%=      5-min Rain = 0
KRRS 231300Z 36007KT 14/13 A3004 RMK A01 T01350129  RH  100%=      5-min Rain = 0
KRRS 231305Z 00008KT 14/13 A3004 RMK A01 T01350129  RH  100%=      5-min Rain = 0
KRRS 231310Z 00007KT 14/13 A3005 RMK A01 T01350129  RH  100%=      5-min Rain = 0
KRRS 231315Z 01009KT 13/13 A3005 RMK A01 T01340128  RH  100%=      5-min Rain = 0
KRRS 231320Z 02007KT 13/13 A3005 RMK A01 T01340128  RH  100%=      5-min Rain = 0
KRRS 231325Z 02006KT 13/13 A3005 RMK A01 T01340128  RH  100%=      5-min Rain = 0
KRRS 231330Z 02005KT 14/13 A3005 RMK A01 T01350129  RH  100%=      5-min Rain = 0
KRRS 231335Z 03005KT 14/13 A3005 RMK A01 T01360130  RH  100%=      5-min Rain = 0
KRRS 231340Z 02006KT 14/13 A3006 RMK A01 T01370131  RH  100%=      5-min Rain = 0
KRRS 231345Z 00007KT 14/13 A3006 RMK A01 T01380132  RH  100%=      5-min Rain = 0
KRRS 231350Z 36008KT 14/13 A3007 RMK A01 T01380132  RH  100%=      5-min Rain = 0
KRRS 231355Z 01007KT 14/13 A3007 RMK A01 T01380131  RH  100%=      5-min Rain = 0
KRRS 231400Z 00008KT 14/13 A3007 RMK A01 T01380132  RH  100%=      5-min Rain = 0
KRRS 231405Z 00008KT 14/13 A3007 RMK A01 T01370131  RH  100%=      5-min Rain = 0
KRRS 231410Z 02008KT 14/13 A3006 RMK A01 T01370131  RH  100%=      5-min Rain = 0
KRRS 231415Z 03008KT 14/13 A3006 RMK A01 T01370131  RH  100%=      5-min Rain = 0
KRRS 231420Z 02008KT 14/13 A3006 RMK A01 T01360130  RH  100%=      5-min Rain = 0
KRRS 231425Z 02009KT 14/13 A3006 RMK A01 T01360130  RH  100%=      5-min Rain = 0
KRRS 231430Z 02008G13KT 14/13 A3006 RMK A01 T01360130  RH  100%=      5-min Rain = 0
KRRS 231435Z 02010KT 14/13 A3005 RMK A01 T01360130  RH  100%=      5-min Rain = 0
KRRS 231440Z 02010KT 14/13 A3005 RMK A01 T01360130  RH  100%=      5-min Rain = 0
KRRS 231445Z 02010KT 14/13 A3006 RMK A01 T01360130  RH  100%=      5-min Rain = 0
KRRS 231450Z 02011KT 14/13 A3006 RMK A01 T01360130  RH  100%=      5-min Rain = 0
KRRS 231455Z 02010G15KT 14/13 A3006 RMK A01 T01360130  RH  100%=      5-min Rain = 0
KRRS 231500Z 02010KT 14/13 A3007 RMK A01 T01360130  RH  100%=      5-min Rain = 0
KRRS 231505Z 02007KT 14/13 A3008 RMK A01 T01350129  RH  100%=      5-min Rain = 0
KRRS 231510Z 05007KT 14/13 A3009 RMK A01 T01350129  RH  100%=      5-min Rain = 0
KRRS 231515Z 06006KT 14/13 A3009 RMK A01 T01360130  RH  100%=      5-min Rain = 0
KRRS 231520Z 06005KT 14/13 A3009 RMK A01 T01360130  RH  100%=      5-min Rain = 0
KRRS 231525Z 06007KT 14/13 A3009 RMK A01 T01360130  RH  100%=      5-min Rain = 0
KRRS 231530Z 06008KT 14/13 A3008 RMK A01 T01370131  RH  100%=      5-min Rain = 0
KRRS 231535Z 05009KT 14/13 A3008 RMK A01 T01360130  RH  100%=      5-min Rain = 0
KRRS 231540Z 05008KT 14/13 A3008 RMK A01 T01360130  RH  100%=      5-min Rain = 0
KRRS 231545Z 05009KT 14/13 A3008 RMK A01 T01370131  RH  100%=      5-min Rain = 0
KRRS 231550Z 05008KT 14/13 A3008 RMK A01 T01400134  RH  100%=      5-min Rain = 0
KRRS 231555Z 05009KT 14/14 A3008 RMK A01 T01430136  RH  100%=      5-min Rain = 0
KRRS 231600Z 04011KT 14/14 A3007 RMK A01 T01430137  RH  100%=      5-min Rain = 0
KRRS 231605Z 04011KT 14/14 A3007 RMK A01 T01440137  RH  100%=      5-min Rain = 0
KRRS 231610Z 04011KT 14/14 A3006 RMK A01 T01440138  RH  100%=      5-min Rain = 0
KRRS 231615Z 04011KT 14/14 A3006 RMK A01 T01440138  RH  100%=      5-min Rain = 0
KRRS 231620Z 04010KT 15/14 A3006 RMK A01 T01450139  RH  100%=      5-min Rain = 0
KRRS 231625Z 03012KT 14/14 A3006 RMK A01 T01430136  RH  100%=      5-min Rain = 0
KRRS 231630Z 04011KT 14/14 A3006 RMK A01 T01420135  RH  100%=      5-min Rain = 0
KRRS 231635Z 02011KT 14/14 A3006 RMK A01 T01410135  RH  100%=      5-min Rain = 0
KRRS 231640Z 03011G16KT 14/13 A3006 RMK A01 T01400134  RH  100%=      5-min Rain = 0
KRRS 231645Z 03011KT 14/13 A3006 RMK A01 T01400134  RH  100%=      5-min Rain = 0
KRRS 231650Z 03010KT 14/13 A3006 RMK A01 T01410134  RH  100%=      5-min Rain = 0
KRRS 231655Z 04012G17KT 14/14 A3006 RMK A01 T01430137  RH  100%=      5-min Rain = 0
KRRS 231700Z 03013KT 15/14 A3006 RMK A01 T01450138  RH  100%=      5-min Rain = 0
KRRS 231705Z 04012KT 14/14 A3006 RMK A01 T01440138  RH  100%=      5-min Rain = 0
KRRS 231710Z 03011KT 14/14 A3005 RMK A01 T01440138  RH  100%=      5-min Rain = 0
KRRS 231715Z 03011KT 15/14 A3005 RMK A01 T01450138  RH  100%=      5-min Rain = 0
KRRS 231720Z 03012KT 14/14 A3005 RMK A01 T01430137  RH  100%=      5-min Rain = 0
KRRS 231725Z 02012G17KT 14/14 A3005 RMK A01 T01440138  RH  100%=      5-min Rain = 0
KRRS 231730Z 02012KT 15/14 A3005 RMK A01 T01450138  RH  100%=      5-min Rain = 0
KRRS 231735Z 02012G18KT 14/14 A3005 RMK A01 T01420136  RH  100%=      5-min Rain = 0
KRRS 231740Z 01012KT 14/13 A3005 RMK A01 T01360130  RH  100%=      5-min Rain = 0
KRRS 231745Z 00013G18KT 13/13 A3006 RMK A01 T01330127  RH  100%=      5-min Rain = 0
KRRS 231750Z 01012G17KT 13/13 A3005 RMK A01 T01320126  RH  100%=      5-min Rain = 0
KRRS 231755Z 02012KT 13/13 A3005 RMK A01 T01320126  RH  100%=      5-min Rain = 0
KRRS 231800Z 01012KT 13/13 A3005 RMK A01 T01330127  RH  100%=      5-min Rain = 0
KRRS 231805Z 01013G19KT 13/13 A3005 RMK A01 T01310125  RH  100%=      5-min Rain = 0
KRRS 231810Z 01012KT 13/12 A3006 RMK A01 T01290123  RH  100%=      5-min Rain = 0
KRRS 231815Z 01012KT 13/12 A3006 RMK A01 T01270122  RH  100%=      5-min Rain = 0
KRRS 231820Z 01012KT 13/12 A3006 RMK A01 T01260121  RH  100%=      5-min Rain = 0
KRRS 231825Z 01011G16KT 13/12 A3006 RMK A01 T01260120  RH  100%=      5-min Rain = 0
KRRS 231830Z 01011KT 13/12 A3006 RMK A01 T01250119  RH  100%=      5-min Rain = 0
KRRS 231835Z 02009G14KT 13/12 A3006 RMK A01 T01260120  RH  100%=      5-min Rain = 0
KRRS 231840Z 02009KT 13/12 A3006 RMK A01 T01260120  RH  100%=      5-min Rain = 0
KRRS 231845Z 02009KT 13/12 A3006 RMK A01 T01260120  RH  100%=      5-min Rain = 0
KRRS 231850Z 02009KT 13/12 A3006 RMK A01 T01270121  RH  100%=      5-min Rain = 0
KRRS 231855Z 02009KT 13/12 A3006 RMK A01 T01270121  RH  100%=      5-min Rain = 0
KRRS 231900Z 02010KT 13/12 A3006 RMK A01 T01250120  RH  100%=      5-min Rain = 0
KRRS 231905Z 02009KT 13/12 A3006 RMK A01 T01250120  RH  100%=      5-min Rain = 0
KRRS 231910Z 01010KT 12/12 A3006 RMK A01 T01240119  RH  100%=      5-min Rain = 0
KRRS 231915Z 01011KT 12/12 A3006 RMK A01 T01230117  RH  100%=      5-min Rain = 0
KRRS 231920Z 01010KT 12/12 A3007 RMK A01 T01220117  RH  100%=      5-min Rain = 0
KRRS 231925Z 01010KT 12/12 A3007 RMK A01 T01220116  RH  100%=      5-min Rain = 0
KRRS 231930Z 01012KT 12/12 A3006 RMK A01 T01210116  RH  100%=      5-min Rain = 0
KRRS 231935Z 01010KT 12/12 A3006 RMK A01 T01220117  RH  100%=      5-min Rain = 0
KRRS 231940Z 01010KT 12/12 A3006 RMK A01 T01240118  RH  100%=      5-min Rain = 0
KRRS 231945Z 02011KT 12/12 A3006 RMK A01 T01240119  RH  100%=      5-min Rain = 0
KRRS 231950Z 02011KT 12/12 A3005 RMK A01 T01240119  RH  100%=      5-min Rain = 0.01
KRRS 231955Z 02010KT 13/12 A3005 RMK A01 T01250120  RH  100%=      5-min Rain = 0
KRRS 232000Z 03010KT 13/12 A3005 RMK A01 T01250120  RH  100%=      5-min Rain = 0
KRRS 232005Z 03009KT 12/12 A3005 RMK A01 T01240119  RH  100%=      5-min Rain = 0
KRRS 232010Z 01010G15KT 12/12 A3005 RMK A01 T01240118  RH  100%=      5-min Rain = 0
KRRS 232015Z 01011KT 12/12 A3005 RMK A01 T01230117  RH  100%=      5-min Rain = 0
KRRS 232020Z 01009KT 12/12 A3005 RMK A01 T01230118  RH  100%=      5-min Rain = 0
KRRS 232025Z 01009KT 12/12 A3005 RMK A01 T01240119  RH  100%=      5-min Rain = 0
KRRS 232030Z 02009KT 13/12 A3005 RMK A01 T01250119  RH  100%=      5-min Rain = 0
KRRS 232035Z 02008KT 13/12 A3005 RMK A01 T01250120  RH  100%=      5-min Rain = 0
KRRS 232040Z 01009KT 13/12 A3005 RMK A01 T01260120  RH  100%=      5-min Rain = 0
KRRS 232045Z 01009KT 13/12 A3005 RMK A01 T01260120  RH  100%=      5-min Rain = 0
KRRS 232050Z 00010KT 13/12 A3004 RMK A01 T01250120  RH  100%=      5-min Rain = 0
KRRS 232055Z 00009KT 12/12 A3005 RMK A01 T01240119  RH  100%=      5-min Rain = 0
KRRS 232100Z 00009KT 12/12 A3005 RMK A01 T01240118  RH  100%=      5-min Rain = 0
KRRS 232105Z 01009KT 12/12 A3004 RMK A01 T01240119  RH  100%=      5-min Rain = 0
KRRS 232110Z 01009KT 12/12 A3004 RMK A01 T01240119  RH  100%=      5-min Rain = 0
KRRS 232115Z 00011KT 12/12 A3004 RMK A01 T01230118  RH  100%=      5-min Rain = 0
KRRS 232120Z 01008KT 12/12 A3004 RMK A01 T01240118  RH  100%=      5-min Rain = 0
KRRS 232125Z 01010KT 12/12 A3004 RMK A01 T01240118  RH  100%=      5-min Rain = 0
KRRS 232130Z 01010KT 12/12 A3004 RMK A01 T01240119  RH  100%=      5-min Rain = 0
KRRS 232135Z 01008KT 13/12 A3004 RMK A01 T01260120  RH  100%=      5-min Rain = 0
KRRS 232140Z 01009G14KT 13/12 A3004 RMK A01 T01270122  RH  100%=      5-min Rain = 0
KRRS 232145Z 00009KT 13/12 A3004 RMK A01 T01270121  RH  100%=      5-min Rain = 0
KRRS 232150Z 00009KT 13/12 A3003 RMK A01 T01270121  RH  100%=      5-min Rain = 0
KRRS 232155Z 01008KT 13/12 A3003 RMK A01 T01270121  RH  100%=      5-min Rain = 0
KRRS 232200Z 01008KT 13/12 A3003 RMK A01 T01270121  RH  100%=      5-min Rain = 0
KRRS 232205Z 01008KT 13/12 A3003 RMK A01 T01270121  RH  100%=      5-min Rain = 0
KRRS 232210Z 01008KT 13/12 A3003 RMK A01 T01270122  RH  100%=      5-min Rain = 0
KRRS 232215Z 01009KT 13/12 A3002 RMK A01 T01280122  RH  100%=      5-min Rain = 0
KRRS 232220Z 02010KT 13/12 A3002 RMK A01 T01280121  RH  099%=      5-min Rain = 0
KRRS 232225Z 01009KT 13/12 A3002 RMK A01 T01290121  RH  099%=      5-min Rain = 0
KRRS 232230Z 01009KT 13/12 A3002 RMK A01 T01300122  RH  099%=      5-min Rain = 0
KRRS 232235Z 02009KT 13/12 A3002 RMK A01 T01300122  RH  098%=      5-min Rain = 0
KRRS 232240Z 02008KT 13/12 A3002 RMK A01 T01300121  RH  098%=      5-min Rain = 0
KRRS 232245Z 02008G13KT 13/12 A3002 RMK A01 T01310122  RH  098%=      5-min Rain = 0
KRRS 232250Z 02007KT 13/12 A3002 RMK A01 T01310121  RH  098%=      5-min Rain = 0
KRRS 232255Z 02009KT 13/12 A3002 RMK A01 T01310121  RH  098%=      5-min Rain = 0
KRRS 232300Z 02008KT 13/12 A3002 RMK A01 T01320122  RH  097%=      5-min Rain = 0
KRRS 232305Z 02007KT 13/12 A3002 RMK A01 T01330123  RH  098%=      5-min Rain = 0
KRRS 232310Z 02008KT 13/12 A3002 RMK A01 T01330123  RH  097%=      5-min Rain = 0
KRRS 232315Z 03007KT 13/12 A3002 RMK A01 T01340123  RH  097%=      5-min Rain = 0
KRRS 232320Z 02007KT 13/12 A3002 RMK A01 T01340123  RH  096%=      5-min Rain = 0
KRRS 232325Z 02007KT 14/12 A3002 RMK A01 T01350123  RH  096%=      5-min Rain = 0
KRRS 232330Z 02010KT 14/12 A3002 RMK A01 T01350121  RH  095%=      5-min Rain = 0
KRRS 232335Z 02009KT 14/12 A3001 RMK A01 T01350121  RH  095%=      5-min Rain = 0
KRRS 232340Z 02008KT 14/12 A3002 RMK A01 T01360122  RH  095%=      5-min Rain = 0
KRRS 232345Z 02007KT 14/12 A3002 RMK A01 T01360123  RH  095%=      5-min Rain = 0
KRRS 232350Z 02007KT 14/12 A3002 RMK A01 T01360122  RH  095%=      5-min Rain = 0
KRRS 232355Z 01008G13KT 14/12 A3001 RMK A01 T01360121  RH  095%=      5-min Rain = 0
KRRS 240000Z 01008KT 14/12 A3001 RMK A01 T01350120  RH  094%=      5-min Rain = 0
KRRS 240005Z 01007KT 13/12 A30 RMK A01 T01340120  RH  095%=      5-min Rain = 0
KRRS 240010Z 01007KT 13/12 A30 RMK A01 T01340121  RH  095%=      5-min Rain = 0
KRRS 240015Z 02007KT 14/12 A30 RMK A01 T01360122  RH  095%=      5-min Rain = 0
KRRS 240020Z 02007KT 14/12 A30 RMK A01 T01370123  RH  095%=      5-min Rain = 0
KRRS 240025Z 03007KT 14/12 A3001 RMK A01 T01380123  RH  094%=      5-min Rain = 0
KRRS 240030Z 04007KT 14/13 A3001 RMK A01 T01390125  RH  095%=      5-min Rain = 0
KRRS 240035Z 04008KT 14/13 A3001 RMK A01 T01400125  RH  094%=      5-min Rain = 0
KRRS 240040Z 04008KT 14/12 A3001 RMK A01 T01390124  RH  094%=      5-min Rain = 0
KRRS 240045Z 03007KT 14/12 A3001 RMK A01 T01380123  RH  094%=      5-min Rain = 0
KRRS 240050Z 02008KT 14/12 A3001 RMK A01 T01370123  RH  094%=      5-min Rain = 0
KRRS 240055Z 02007KT 14/12 A30 RMK A01 T01360122  RH  095%=      5-min Rain = 0
KRRS 240100Z 03007KT 13/12 A30 RMK A01 T01340121  RH  095%=      5-min Rain = 0
KRRS 240105Z 04006KT 13/12 A3001 RMK A01 T01330121  RH  096%=      5-min Rain = 0
KRRS 240110Z 05005KT 13/12 A3002 RMK A01 T01320121  RH  097%=      5-min Rain = 0
KRRS 240115Z 06005KT 13/12 A3002 RMK A01 T01310121  RH  097%=      5-min Rain = 0
KRRS 240120Z 07005KT 13/12 A3002 RMK A01 T01300121  RH  098%=      5-min Rain = 0
KRRS 240125Z 06005KT 13/12 A3002 RMK A01 T01300121  RH  098%=      5-min Rain = 0
KRRS 240130Z 05005KT 13/12 A3002 RMK A01 T01300121  RH  098%=      5-min Rain = 0
KRRS 240135Z 05005KT 13/12 A3002 RMK A01 T01290121  RH  098%=      5-min Rain = 0
KRRS 240140Z 04005KT 13/12 A3002 RMK A01 T01290121  RH  099%=      5-min Rain = 0
KRRS 240145Z 02005KT 13/12 A3002 RMK A01 T01280121  RH  099%=      5-min Rain = 0
KRRS 240150Z 02005KT 13/12 A3001 RMK A01 T01280121  RH  099%=      5-min Rain = 0
KRRS 240155Z 04004KT 13/12 A3001 RMK A01 T01270121  RH  099%=      5-min Rain = 0
KRRS 240200Z 03003KT 13/12 A3002 RMK A01 T01270121  RH  100%=      5-min Rain = 0
KRRS 240205Z 02004KT 13/12 A3001 RMK A01 T01270121  RH  100%=      5-min Rain = 0
KRRS 240210Z 03004KT 13/12 A3001 RMK A01 T01270121  RH  100%=      5-min Rain = 0
KRRS 240215Z 02004KT 13/12 A3001 RMK A01 T01260120  RH  100%=      5-min Rain = 0
KRRS 240220Z 01005KT 12/12 A3001 RMK A01 T01240119  RH  100%=      5-min Rain = 0
KRRS 240225Z 01005KT 12/12 A3001 RMK A01 T01230118  RH  100%=      5-min Rain = 0
KRRS 240230Z 03005KT 12/12 A3001 RMK A01 T01220116  RH  100%=      5-min Rain = 0
KRRS 240235Z 02005KT 12/12 A3002 RMK A01 T01200115  RH  100%=      5-min Rain = 0
KRRS 240240Z 01005KT 12/11 A3002 RMK A01 T01190114  RH  100%=      5-min Rain = 0
KRRS 240245Z 03004KT 12/11 A3002 RMK A01 T01180113  RH  100%=      5-min Rain = 0
KRRS 240250Z 02006KT 12/11 A3002 RMK A01 T01170111  RH  100%=      5-min Rain = 0
KRRS 240255Z 01005KT 12/11 A3002 RMK A01 T01160111  RH  100%=      5-min Rain = 0
KRRS 240300Z 02005KT 12/11 A3002 RMK A01 T01150110  RH  100%=      5-min Rain = 0
KRRS 240305Z 01006KT 12/11 A3001 RMK A01 T01150110  RH  100%=      5-min Rain = 0
KRRS 240310Z 00006KT 12/11 A3001 RMK A01 T01150110  RH  100%=      5-min Rain = 0
KRRS 240315Z 01005KT 12/11 A3002 RMK A01 T01150110  RH  100%=      5-min Rain = 0
KRRS 240320Z 02004KT 12/11 A3002 RMK A01 T01150109  RH  100%=      5-min Rain = 0
KRRS 240325Z 02003KT 11/11 A3002 RMK A01 T01140109  RH  100%=      5-min Rain = 0
KRRS 240330Z 01003KT 11/11 A3002 RMK A01 T01130108  RH  100%=      5-min Rain = 0
KRRS 240335Z 03003KT 11/11 A3002 RMK A01 T01120107  RH  100%=      5-min Rain = 0
KRRS 240340Z 06003KT 11/11 A3003 RMK A01 T01110106  RH  100%=      5-min Rain = 0
KRRS 240345Z 06004KT 11/11 A3003 RMK A01 T01120107  RH  100%=      5-min Rain = 0
KRRS 240350Z 05003KT 11/11 A3004 RMK A01 T01120107  RH  100%=      5-min Rain = 0
KRRS 240355Z 02004KT 11/11 A3003 RMK A01 T01110106  RH  100%=      5-min Rain = 0
KRRS 240400Z 01003KT 11/11 A3003 RMK A01 T01100105  RH  100%=      5-min Rain = 0
KRRS 240405Z 00003KT 11/10 A3003 RMK A01 T01090104  RH  100%=      5-min Rain = 0
KRRS 240410Z 01002KT 11/11 A3003 RMK A01 T01100105  RH  100%=      5-min Rain = 0
KRRS 240415Z 01002KT 11/11 A3003 RMK A01 T01100105  RH  100%=      5-min Rain = 0
KRRS 240420Z 01002KT 11/11 A3003 RMK A01 T01110106  RH  100%=      5-min Rain = 0
KRRS 240425Z 36002KT 11/11 A3004 RMK A01 T01110106  RH  100%=      5-min Rain = 0
KRRS 240430Z 35002KT 11/11 A3004 RMK A01 T01100105  RH  100%=      5-min Rain = 0
KRRS 240435Z 36002KT 11/11 A3004 RMK A01 T01110106  RH  100%=      5-min Rain = 0
KRRS 240440Z 35003KT 11/11 A3004 RMK A01 T01120106  RH  100%=      5-min Rain = 0
KRRS 240445Z 35002KT 11/11 A3004 RMK A01 T01120107  RH  100%=      5-min Rain = 0
KRRS 240450Z 32002KT 11/11 A3004 RMK A01 T01110106  RH  100%=      5-min Rain = 0
KRRS 240455Z 32003KT 11/11 A3003 RMK A01 T01100105  RH  100%=      5-min Rain = 0

Page generated in 0.009 seconds.